Time;durP1;ratioP1;P1;durP2;ratioP2;P2;SDS_P1;SDS_P2;PMS_P1;PMS_P2;Temp;Humidity;BMP_temperature;BMP_pressure;BME280_temperature;BME280_humidity;BME280_pressure;Samples;Min_cycle;Max_cycle;Signal;HPM_P1;HPM_P2
2024/03/26 00:01:19;;;;;;;6.63;4.60;;;;;;;6.67;53.63;94497.50;4951966;28;20509;-69
2024/03/26 00:03:44;;;;;;;5.97;4.20;;;;;;;6.87;52.72;94487.63;4951625;28;20181;-69
2024/03/26 00:06:10;;;;;;;4.70;4.00;;;;;;;6.78;52.80;94492.47;4952804;28;20552;-69
2024/03/26 00:08:35;;;;;;;4.87;3.60;;;;;;;6.50;53.75;94502.84;4951807;28;20205;-69
2024/03/26 00:11:00;;;;;;;6.33;3.50;;;;;;;6.53;53.42;94502.66;4952032;28;20554;-69
2024/03/26 00:13:26;;;;;;;4.90;4.37;;;;;;;6.31;54.09;94506.53;4953231;28;20182;-69
2024/03/26 00:15:51;;;;;;;6.83;4.03;;;;;;;6.28;54.21;94516.25;4953648;28;20179;-70
2024/03/26 00:18:16;;;;;;;9.43;4.10;;;;;;;6.42;54.29;94505.88;4951148;29;20189;-69
2024/03/26 00:20:43;;;;;;;7.97;3.90;;;;;;;6.50;54.21;94505.47;4950549;28;20178;-68
2024/03/26 00:23:12;;;;;;;4.10;3.70;;;;;;;6.38;54.06;94509.63;4949795;28;20186;-70
2024/03/26 00:25:37;;;;;;;5.40;3.60;;;;;;;6.48;54.01;94497.72;4951207;28;20422;-68
2024/03/26 00:28:03;;;;;;;7.37;4.03;;;;;;;6.47;54.36;94497.81;4950954;28;20461;-69
2024/03/26 00:30:28;;;;;;;8.50;3.67;;;;;;;6.36;54.40;94493.25;4951582;28;20198;-70
2024/03/26 00:32:53;;;;;;;5.80;4.00;;;;;;;6.40;54.35;94494.72;4952997;28;20247;-69
2024/03/26 00:35:19;;;;;;;10.17;4.37;;;;;;;6.54;53.97;94489.56;4954359;28;20261;-68
2024/03/26 00:37:44;;;;;;;3.77;2.93;;;;;;;6.44;54.70;94484.97;4955709;28;20182;-69
2024/03/26 00:40:10;;;;;;;5.37;3.30;;;;;;;6.31;54.79;94482.25;4959038;28;20190;-69
2024/03/26 00:42:36;;;;;;;4.27;3.37;;;;;;;6.29;55.06;94476.28;4959196;28;20619;-70
2024/03/26 00:45:01;;;;;;;4.10;3.70;;;;;;;5.90;56.64;94477.59;4960270;28;20457;-70
2024/03/26 00:47:26;;;;;;;3.60;3.30;;;;;;;6.02;56.13;94476.91;4959362;28;20281;-69
2024/03/26 00:49:52;;;;;;;4.47;4.07;;;;;;;6.21;55.39;94471.50;4957979;28;20237;-69
2024/03/26 00:52:17;;;;;;;7.10;4.60;;;;;;;6.46;54.71;94476.13;4950208;28;20178;-70
2024/03/26 00:54:42;;;;;;;5.03;4.20;;;;;;;6.24;55.47;94470.50;4949254;28;20678;-70
2024/03/26 00:57:08;;;;;;;4.70;3.80;;;;;;;6.22;55.61;94467.16;4949651;28;20166;-69
2024/03/26 00:59:33;;;;;;;4.37;3.97;;;;;;;6.28;55.28;94461.56;4948599;28;20542;-69
2024/03/26 01:01:59;;;;;;;5.20;3.60;;;;;;;6.28;55.58;94451.16;4948420;28;20264;-69
2024/03/26 01:04:24;;;;;;;6.03;3.57;;;;;;;6.07;56.04;94453.22;4948470;29;20559;-70
2024/03/26 01:06:49;;;;;;;4.30;3.90;;;;;;;6.27;55.55;94454.69;4948787;29;20202;-70
2024/03/26 01:09:15;;;;;;;4.73;4.33;;;;;;;6.09;55.95;94449.59;4948742;29;20674;-68
2024/03/26 01:11:40;;;;;;;6.17;4.00;;;;;;;6.05;56.40;94448.13;4948539;29;20178;-70
2024/03/26 01:14:05;;;;;;;4.70;3.70;;;;;;;6.10;56.20;94442.66;4948724;28;20170;-70
2024/03/26 01:16:31;;;;;;;5.00;3.83;;;;;;;6.15;56.29;94440.63;4952402;29;20653;-69
2024/03/26 01:18:56;;;;;;;6.20;3.70;;;;;;;6.24;56.02;94439.25;4952171;28;20279;-69
2024/03/26 01:21:22;;;;;;;6.13;3.83;;;;;;;6.27;55.83;94445.09;4952293;29;20166;-69
2024/03/26 01:23:47;;;;;;;4.30;3.63;;;;;;;6.32;55.74;94440.47;4952418;28;20185;-69
2024/03/26 01:26:12;;;;;;;5.60;4.77;;;;;;;6.01;56.30;94440.56;4952244;29;20205;-68
2024/03/26 01:28:38;;;;;;;4.57;4.00;;;;;;;6.02;56.75;94437.03;4952287;29;20927;-70
2024/03/26 01:31:03;;;;;;;6.60;4.67;;;;;;;5.71;57.45;94438.75;4953290;29;20186;-70
2024/03/26 01:33:29;;;;;;;7.77;4.50;;;;;;;5.91;56.96;94427.22;4951819;29;20598;-70
2024/03/26 01:35:54;;;;;;;9.30;4.70;;;;;;;5.91;57.34;94435.03;4951207;29;20185;-69
2024/03/26 01:38:20;;;;;;;4.30;3.90;;;;;;;6.00;56.98;94436.28;4951871;29;20658;-69
2024/03/26 01:40:45;;;;;;;6.20;4.07;;;;;;;5.90;56.98;94434.16;4952195;28;20189;-69
2024/03/26 01:43:11;;;;;;;4.80;4.17;;;;;;;5.11;59.87;94425.63;4951747;28;20414;-69
2024/03/26 01:45:36;;;;;;;6.23;4.50;;;;;;;5.39;58.90;94420.59;4952249;29;20185;-69
2024/03/26 01:48:03;;;;;;;7.90;4.10;;;;;;;5.72;58.11;94420.44;4951856;28;20228;-68
2024/03/26 01:50:29;;;;;;;4.60;3.93;;;;;;;5.52;58.17;94415.53;4952293;29;20194;-69
2024/03/26 01:52:55;;;;;;;3.57;3.10;;;;;;;5.68;58.12;94415.50;4951486;29;20414;-68
2024/03/26 01:55:21;;;;;;;4.87;4.07;;;;;;;5.81;58.13;94407.81;4951840;29;20178;-68
2024/03/26 01:57:48;;;;;;;7.40;4.17;;;;;;;5.82;57.81;94410.34;4951537;28;20182;-68
2024/03/26 02:00:19;;;;;;;7.30;4.00;;;;;;;5.76;58.33;94407.25;4951416;29;20666;-70
2024/03/26 02:02:45;;;;;;;7.17;4.87;;;;;;;5.45;58.78;94403.78;4951179;29;20405;-70
2024/03/26 02:05:10;;;;;;;4.00;3.60;;;;;;;5.60;58.66;94402.06;4951762;29;20949;-70
2024/03/26 02:07:37;;;;;;;4.60;4.20;;;;;;;5.17;60.07;94407.91;4951714;28;20206;-69
2024/03/26 02:10:05;;;;;;;6.17;4.27;;;;;;;4.80;61.31;94409.06;4951013;29;20217;-69
2024/03/26 02:12:30;;;;;;;4.90;4.40;;;;;;;5.21;60.45;94411.19;4965497;28;20818;-70
2024/03/26 02:14:56;;;;;;;5.67;4.07;;;;;;;5.33;59.76;94413.09;4950865;28;20428;-70
2024/03/26 02:17:22;;;;;;;5.90;4.57;;;;;;;5.38;59.85;94415.47;4951344;29;20237;-68
2024/03/26 02:19:47;;;;;;;6.43;4.30;;;;;;;5.23;60.43;94409.34;4951115;29;20762;-69
2024/03/26 02:22:13;;;;;;;8.60;3.93;;;;;;;4.84;61.38;94403.63;4950665;28;20840;-69
2024/03/26 02:24:38;;;;;;;5.53;4.37;;;;;;;4.43;63.21;94400.59;4951073;29;20229;-68
2024/03/26 02:27:04;;;;;;;6.40;4.33;;;;;;;4.75;61.84;94393.72;4949425;28;20699;-69
2024/03/26 02:29:29;;;;;;;8.63;3.90;;;;;;;4.95;61.76;94391.81;4950510;28;20204;-69
2024/03/26 02:31:54;;;;;;;7.50;4.50;;;;;;;4.74;62.19;94393.81;4950380;29;20167;-69
2024/03/26 02:34:20;;;;;;;7.07;5.00;;;;;;;4.88;61.50;94388.69;4950721;29;20248;-69
2024/03/26 02:36:46;;;;;;;7.73;4.90;;;;;;;4.44;63.25;94386.69;4950135;29;20182;-70
2024/03/26 02:39:12;;;;;;;5.60;5.10;;;;;;;4.31;63.80;94378.72;4950265;29;20442;-69
2024/03/26 02:41:38;;;;;;;7.77;5.20;;;;;;;4.11;64.07;94371.09;4949241;29;20240;-69
2024/03/26 02:44:04;;;;;;;5.53;5.03;;;;;;;4.36;63.98;94366.31;4949784;29;20291;-70
2024/03/26 02:46:29;;;;;;;5.13;4.63;;;;;;;4.60;62.34;94355.56;4949908;29;21025;-71
2024/03/26 02:48:55;;;;;;;5.63;4.77;;;;;;;4.57;63.44;94353.13;4950160;29;20640;-70
2024/03/26 02:51:20;;;;;;;6.20;4.83;;;;;;;4.39;63.05;94357.53;4950085;29;20577;-70
2024/03/26 02:53:45;;;;;;;5.60;3.73;;;;;;;4.06;64.96;94358.34;4950288;29;20754;-70
2024/03/26 02:56:11;;;;;;;6.03;5.33;;;;;;;4.12;64.24;94349.44;4950354;28;20178;-71
2024/03/26 02:58:36;;;;;;;7.73;4.93;;;;;;;4.17;64.39;94352.63;4950115;29;20198;-70
2024/03/26 03:01:13;;;;;;;5.13;4.60;;;;;;;4.12;64.57;94341.66;4950277;29;20193;-70
2024/03/26 03:03:38;;;;;;;17.50;9.37;;;;;;;4.28;64.19;94342.53;4950374;28;20539;-69
2024/03/26 03:06:05;;;;;;;5.80;5.10;;;;;;;4.22;64.69;94335.06;4950032;28;20489;-69
2024/03/26 03:08:31;;;;;;;4.80;4.20;;;;;;;4.53;62.98;94338.63;4950166;28;20298;-69
2024/03/26 03:10:56;;;;;;;5.60;4.77;;;;;;;4.39;63.64;94332.44;4950612;28;20508;-70
2024/03/26 03:13:21;;;;;;;5.33;4.60;;;;;;;4.26;63.99;94331.38;4950351;28;20174;-70
2024/03/26 03:15:47;;;;;;;5.30;4.40;;;;;;;4.19;64.30;94317.88;4951138;28;20181;-71
2024/03/26 03:18:13;;;;;;;5.47;4.70;;;;;;;3.99;65.45;94321.53;4951227;28;20166;-69
2024/03/26 03:20:38;;;;;;;6.37;4.90;;;;;;;4.05;65.37;94322.13;4951118;28;20193;-69
2024/03/26 03:23:04;;;;;;;8.73;5.30;;;;;;;4.35;63.86;94328.31;4951147;28;20956;-69
2024/03/26 03:25:29;;;;;;;6.87;4.40;;;;;;;4.44;63.53;94330.41;4950461;28;20774;-69
2024/03/26 03:27:55;;;;;;;4.77;4.00;;;;;;;4.88;62.45;94327.16;4950098;29;20194;-69
2024/03/26 03:30:20;;;;;;;7.97;5.10;;;;;;;4.72;62.45;94325.47;4951239;28;20198;-69
2024/03/26 03:32:46;;;;;;;6.00;5.03;;;;;;;4.67;63.14;94326.56;4950514;28;20706;-70
2024/03/26 03:35:11;;;;;;;5.70;4.33;;;;;;;4.77;62.44;94333.88;4950032;28;20252;-70
2024/03/26 03:37:37;;;;;;;7.33;5.30;;;;;;;4.85;62.16;94334.31;4950201;28;20267;-70
2024/03/26 03:40:04;;;;;;;5.13;4.63;;;;;;;4.92;62.14;94343.44;4950568;28;20208;-69
2024/03/26 03:42:30;;;;;;;4.90;4.40;;;;;;;4.91;62.48;94330.50;4950008;28;20174;-69
2024/03/26 03:44:56;;;;;;;5.10;4.37;;;;;;;5.05;61.83;94339.22;4950115;28;20945;-71
2024/03/26 03:47:22;;;;;;;8.43;6.43;;;;;;;5.07;61.40;94339.16;4950591;28;20465;-69
2024/03/26 03:49:47;;;;;;;5.30;4.80;;;;;;;4.95;61.73;94337.22;4949090;28;21105;-69
2024/03/26 03:52:13;;;;;;;5.23;4.73;;;;;;;4.75;62.60;94340.91;4950815;28;20182;-69
2024/03/26 03:54:39;;;;;;;6.30;5.13;;;;;;;4.87;62.26;94335.88;4950183;28;20182;-69
2024/03/26 03:57:04;;;;;;;5.97;5.00;;;;;;;4.78;62.72;94341.59;4950587;28;20205;-70
2024/03/26 03:59:30;;;;;;;8.30;4.50;;;;;;;4.88;62.59;94339.31;4951304;28;20196;-69
2024/03/26 04:01:55;;;;;;;5.90;4.63;;;;;;;4.25;64.60;94332.28;4951692;28;20228;-69
2024/03/26 04:04:20;;;;;;;7.20;4.57;;;;;;;4.71;63.08;94336.81;4952786;28;20174;-69
2024/03/26 04:06:46;;;;;;;5.80;5.30;;;;;;;4.34;64.56;94333.56;4954216;29;20230;-72
2024/03/26 04:09:11;;;;;;;6.30;5.27;;;;;;;4.24;64.50;94333.22;4969359;28;20200;-69
2024/03/26 04:11:37;;;;;;;6.80;5.87;;;;;;;4.65;63.57;94322.38;4956409;28;20193;-69
2024/03/26 04:14:02;;;;;;;8.77;5.70;;;;;;;4.81;62.44;94319.78;4959691;29;20538;-70
2024/03/26 04:16:28;;;;;;;7.30;5.53;;;;;;;4.82;62.18;94308.50;4960697;28;20167;-69
2024/03/26 04:18:53;;;;;;;5.83;5.07;;;;;;;4.77;62.54;94310.47;4958481;29;20248;-69
2024/03/26 04:21:19;;;;;;;6.53;4.83;;;;;;;4.63;62.49;94309.50;4956441;28;20384;-69
2024/03/26 04:23:45;;;;;;;5.80;5.20;;;;;;;4.82;62.76;94309.31;4956271;28;20173;-69
2024/03/26 04:26:10;;;;;;;6.50;5.63;;;;;;;4.67;62.63;94305.78;4949819;28;20190;-69
2024/03/26 04:28:36;;;;;;;5.47;4.90;;;;;;;4.41;63.69;94306.34;4949033;28;20450;-69
2024/03/26 04:31:02;;;;;;;5.90;5.07;;;;;;;4.63;62.85;94309.50;4948794;28;20201;-69
2024/03/26 04:33:28;;;;;;;7.17;5.47;;;;;;;4.63;63.38;94330.28;4948905;29;20186;-69
2024/03/26 04:35:53;;;;;;;6.60;4.80;;;;;;;4.43;63.37;94336.50;4949658;29;20261;-69
2024/03/26 04:38:18;;;;;;;8.00;4.90;;;;;;;4.66;63.48;94327.50;4948655;29;20672;-69
2024/03/26 04:40:44;;;;;;;5.60;4.90;;;;;;;4.85;62.48;94329.09;4948812;29;20178;-69
2024/03/26 04:43:10;;;;;;;19.87;5.87;;;;;;;4.88;62.56;94326.31;4948177;29;20558;-69
2024/03/26 04:45:37;;;;;;;10.23;5.00;;;;;;;4.77;63.19;94336.47;4949026;29;20463;-70
2024/03/26 04:48:02;;;;;;;10.73;4.50;;;;;;;4.69;62.92;94336.06;4948980;28;20221;-69
2024/03/26 04:50:28;;;;;;;5.50;4.47;;;;;;;5.06;62.17;94333.13;4948302;28;20441;-70
2024/03/26 04:52:54;;;;;;;11.50;5.63;;;;;;;4.93;62.72;94333.88;4948772;28;20261;-69
2024/03/26 04:55:20;;;;;;;12.37;6.07;;;;;;;4.78;62.65;94339.00;4948680;29;20217;-68
2024/03/26 04:57:45;;;;;;;16.27;6.60;;;;;;;4.84;62.38;94328.28;4949319;29;20542;-70
2024/03/26 05:00:12;;;;;;;10.30;5.70;;;;;;;4.79;62.73;94330.25;4949394;28;20440;-69
2024/03/26 05:02:42;;;;;;;8.70;4.67;;;;;;;4.92;62.30;94321.81;4948435;29;20269;-69
2024/03/26 05:05:08;;;;;;;10.57;5.60;;;;;;;4.84;62.50;94322.22;4948985;28;20423;-69
2024/03/26 05:07:34;;;;;;;16.40;6.07;;;;;;;4.88;62.13;94321.13;4948387;28;20462;-69
2024/03/26 05:10:00;;;;;;;13.07;5.70;;;;;;;4.90;61.85;94328.84;4948809;28;20442;-70
2024/03/26 05:12:28;;;;;;;12.23;4.97;;;;;;;4.78;62.30;94318.19;4948688;28;20413;-68
2024/03/26 05:14:54;;;;;;;16.83;6.37;;;;;;;4.82;62.41;94316.28;4949001;28;20327;-69
2024/03/26 05:17:19;;;;;;;12.63;5.23;;;;;;;4.92;62.14;94327.00;4948743;28;20472;-69
2024/03/26 05:19:44;;;;;;;16.03;5.17;;;;;;;4.84;61.74;94324.81;4947182;28;20220;-68
2024/03/26 05:22:10;;;;;;;16.90;5.80;;;;;;;5.11;61.65;94326.84;4940601;28;20347;-68
2024/03/26 05:24:38;;;;;;;5.13;4.40;;;;;;;5.11;61.44;94324.22;4980632;28;20185;-69
2024/03/26 05:27:03;;;;;;;6.37;4.80;;;;;;;5.12;61.61;94311.13;4944781;28;20216;-69
2024/03/26 05:29:29;;;;;;;6.10;4.93;;;;;;;5.07;61.91;94316.56;4947143;28;20458;-69
2024/03/26 05:31:55;;;;;;;6.27;5.67;;;;;;;5.04;61.90;94310.72;4948074;28;20265;-70
2024/03/26 05:34:20;;;;;;;7.53;5.03;;;;;;;5.03;61.82;94314.25;4959955;28;20268;-69
2024/03/26 05:36:45;;;;;;;6.10;5.07;;;;;;;4.82;62.20;94306.72;4951738;28;20185;-68
2024/03/26 05:39:11;;;;;;;7.73;5.57;;;;;;;4.61;62.82;94307.91;4941432;28;20212;-69
2024/03/26 05:41:37;;;;;;;8.13;4.40;;;;;;;4.77;62.42;94313.94;4945406;28;20860;-69
2024/03/26 05:44:02;;;;;;;7.10;4.20;;;;;;;4.79;62.48;94319.03;4949413;28;20185;-69
2024/03/26 05:46:28;;;;;;;5.27;4.50;;;;;;;4.94;61.32;94309.53;4953864;28;20468;-69
2024/03/26 05:48:53;;;;;;;7.60;5.80;;;;;;;4.99;62.12;94310.16;4958141;28;20300;-69
2024/03/26 05:51:19;;;;;;;8.17;5.30;;;;;;;5.09;61.40;94313.91;4963147;28;20186;-70
2024/03/26 05:53:45;;;;;;;7.13;5.17;;;;;;;4.73;62.98;94307.22;4941134;28;20187;-68
2024/03/26 05:56:10;;;;;;;5.70;4.87;;;;;;;5.02;61.47;94296.97;4936209;28;20467;-69
2024/03/26 05:58:36;;;;;;;14.37;5.77;;;;;;;5.19;60.91;94294.25;4948207;28;20198;-69
2024/03/26 06:01:03;;;;;;;27.77;7.43;;;;;;;5.17;60.81;94298.69;4954907;28;20299;-70
2024/03/26 06:03:28;;;;;;;9.90;5.93;;;;;;;5.39;60.42;94295.72;4961301;28;20600;-69
2024/03/26 06:05:54;;;;;;;19.10;5.67;;;;;;;5.66;59.69;94288.06;4963054;28;20429;-70
2024/03/26 06:08:19;;;;;;;10.83;4.70;;;;;;;5.75;59.59;94294.53;4963460;28;20210;-68
2024/03/26 06:10:45;;;;;;;8.77;4.67;;;;;;;5.70;59.27;94294.78;4947644;28;20666;-67
2024/03/26 06:13:10;;;;;;;11.07;5.20;;;;;;;6.19;57.75;94296.28;4967395;28;20550;-69
2024/03/26 06:15:35;;;;;;;6.83;5.17;;;;;;;5.49;59.49;94288.22;4949620;28;20187;-69
2024/03/26 06:18:01;;;;;;;7.73;5.50;;;;;;;5.92;58.92;94283.94;4951096;28;20258;-69
2024/03/26 06:20:26;;;;;;;10.03;5.23;;;;;;;5.70;59.30;94279.19;4949736;28;20206;-69
2024/03/26 06:22:51;;;;;;;6.50;4.63;;;;;;;6.50;57.10;94271.78;4948589;28;20912;-69
2024/03/26 06:25:17;;;;;;;4.80;4.30;;;;;;;7.24;54.53;94272.31;4947921;28;20186;-69
2024/03/26 06:27:42;;;;;;;8.97;5.00;;;;;;;8.39;52.13;94258.53;4950855;28;20213;-70
2024/03/26 06:30:08;;;;;;;8.33;5.13;;;;;;;8.57;50.84;94262.50;4966688;28;20222;-68
2024/03/26 06:32:33;;;;;;;6.50;4.67;;;;;;;9.01;49.28;94255.88;4948450;28;20229;-68
2024/03/26 06:34:59;;;;;;;11.53;5.43;;;;;;;9.40;48.30;94255.69;4948809;28;20597;-68
2024/03/26 06:37:24;;;;;;;6.50;5.23;;;;;;;9.17;48.75;94254.78;4953032;28;20185;-68
2024/03/26 06:39:50;;;;;;;7.53;5.43;;;;;;;8.61;50.22;94242.22;4962400;28;20219;-68
2024/03/26 06:42:15;;;;;;;7.90;5.33;;;;;;;8.51;50.40;94249.88;4969057;28;20213;-68
2024/03/26 06:44:41;;;;;;;7.27;5.00;;;;;;;8.85;49.83;94244.84;4968438;28;20648;-69
2024/03/26 06:47:06;;;;;;;5.40;4.47;;;;;;;8.27;50.96;94248.00;4968864;28;20205;-68
2024/03/26 06:49:32;;;;;;;13.07;5.60;;;;;;;8.14;52.29;94247.16;4968754;28;20216;-68
2024/03/26 06:51:57;;;;;;;7.30;5.30;;;;;;;7.80;51.98;94248.63;4968942;28;20177;-68
2024/03/26 06:54:22;;;;;;;5.83;4.97;;;;;;;7.66;53.69;94246.94;4968481;28;20199;-68
2024/03/26 06:56:48;;;;;;;8.33;6.60;;;;;;;7.06;56.04;94242.22;4968532;28;20232;-69
2024/03/26 06:59:14;;;;;;;6.57;4.30;;;;;;;7.01;55.32;94247.72;4968290;28;20268;-68
2024/03/26 07:01:39;;;;;;;5.77;4.43;;;;;;;7.44;54.46;94242.34;4957946;28;20685;-71
2024/03/26 07:04:05;;;;;;;6.97;5.43;;;;;;;7.40;54.03;94248.69;4948377;28;20189;-68
2024/03/26 07:06:30;;;;;;;5.30;4.80;;;;;;;7.40;54.54;94249.50;4948576;28;20194;-68
2024/03/26 07:08:57;;;;;;;7.80;7.00;;;;;;;6.22;56.73;94250.97;4948954;28;20194;-68
2024/03/26 07:11:22;;;;;;;7.07;5.43;;;;;;;6.26;57.45;94244.63;4949376;28;20182;-68
2024/03/26 07:13:50;;;;;;;6.73;5.50;;;;;;;6.77;57.30;94234.50;4956318;28;20538;-67
2024/03/26 07:16:16;;;;;;;5.90;5.10;;;;;;;7.37;54.77;94228.84;4956886;28;20182;-68
2024/03/26 07:18:41;;;;;;;8.33;6.17;;;;;;;6.88;55.16;94237.25;4937592;29;20497;-70
2024/03/26 07:21:06;;;;;;;9.37;5.30;;;;;;;7.13;55.30;94228.66;4948534;28;20265;-68
2024/03/26 07:23:32;;;;;;;6.60;5.27;;;;;;;6.52;57.21;94230.84;4965337;28;20304;-68
2024/03/26 07:25:57;;;;;;;10.20;5.87;;;;;;;6.92;56.47;94220.50;4966682;28;20180;-70
2024/03/26 07:28:23;;;;;;;7.40;5.50;;;;;;;6.56;56.86;94221.88;4968321;28;20205;-69
2024/03/26 07:30:48;;;;;;;9.53;5.97;;;;;;;6.99;56.39;94218.28;4969196;28;20215;-68
2024/03/26 07:33:13;;;;;;;8.80;5.87;;;;;;;6.94;55.87;94218.59;4969372;28;20724;-70
2024/03/26 07:35:40;;;;;;;6.10;5.40;;;;;;;6.07;58.05;94224.94;4971373;28;20272;-71
2024/03/26 07:38:05;;;;;;;6.53;5.00;;;;;;;6.44;57.85;94233.06;4970834;28;20177;-69
2024/03/26 07:40:30;;;;;;;7.03;5.00;;;;;;;6.95;56.37;94240.31;4970109;28;20960;-68
2024/03/26 07:42:56;;;;;;;6.27;5.40;;;;;;;6.32;58.07;94233.84;4975170;28;20181;-71
2024/03/26 07:45:22;;;;;;;8.53;5.87;;;;;;;7.09;55.90;94234.22;4979387;28;20552;-70
2024/03/26 07:47:47;;;;;;;8.50;5.40;;;;;;;7.31;54.97;94226.63;4974286;28;20221;-69
2024/03/26 07:50:13;;;;;;;8.10;5.10;;;;;;;7.55;54.87;94228.56;4978438;28;20202;-68
2024/03/26 07:52:39;;;;;;;9.43;6.03;;;;;;;6.98;55.83;94232.28;4964931;28;20185;-70
2024/03/26 07:55:04;;;;;;;6.13;4.70;;;;;;;6.64;56.30;94244.00;4967745;28;20669;-71
2024/03/26 07:57:30;;;;;;;11.00;6.00;;;;;;;6.97;56.50;94234.06;4967478;28;20444;-70
2024/03/26 07:59:55;;;;;;;7.57;5.83;;;;;;;6.72;56.91;94231.34;4967098;28;20236;-69
2024/03/26 08:02:21;;;;;;;7.73;5.53;;;;;;;7.11;55.36;94227.09;4962640;28;20540;-69
2024/03/26 08:04:46;;;;;;;7.70;5.30;;;;;;;7.24;55.38;94229.75;4967242;28;20178;-70
2024/03/26 08:07:12;;;;;;;7.33;6.20;;;;;;;7.43;55.44;94212.78;4967431;28;20197;-69
2024/03/26 08:09:38;;;;;;;6.13;5.50;;;;;;;7.89;52.73;94201.00;4967120;28;20233;-70
2024/03/26 08:12:04;;;;;;;6.60;5.17;;;;;;;7.43;54.88;94211.94;4966661;28;20268;-71
2024/03/26 08:14:29;;;;;;;8.30;5.70;;;;;;;7.62;54.35;94198.50;4966298;28;20464;-69
2024/03/26 08:16:54;;;;;;;7.50;5.60;;;;;;;7.62;54.46;94211.53;4959404;28;20181;-70
2024/03/26 08:19:20;;;;;;;7.67;5.63;;;;;;;8.32;52.30;94205.03;4966756;28;20643;-70
2024/03/26 08:21:46;;;;;;;11.03;5.70;;;;;;;8.47;52.11;94203.97;4966868;28;20185;-71
2024/03/26 08:24:11;;;;;;;7.30;5.67;;;;;;;8.33;52.26;94198.84;4961847;28;20213;-69
2024/03/26 08:26:37;;;;;;;7.53;5.70;;;;;;;8.27;53.05;94200.97;4965977;28;20214;-70
2024/03/26 08:29:02;;;;;;;7.70;5.57;;;;;;;9.59;49.84;94192.34;4963680;28;20205;-69
2024/03/26 08:31:29;;;;;;;5.90;5.20;;;;;;;9.88;49.40;94190.97;4965174;28;20204;-69
2024/03/26 08:33:54;;;;;;;8.63;5.80;;;;;;;10.16;47.62;94189.69;4963147;28;20177;-70
2024/03/26 08:36:22;;;;;;;7.50;4.83;;;;;;;10.48;47.86;94186.34;4966860;28;20734;-68
2024/03/26 08:38:47;;;;;;;6.53;5.30;;;;;;;10.92;46.63;94179.34;4967200;28;20870;-68
2024/03/26 08:41:14;;;;;;;7.00;5.57;;;;;;;10.60;47.02;94177.50;4966744;28;20424;-69
2024/03/26 08:43:40;;;;;;;6.00;4.90;;;;;;;10.45;47.33;94191.00;4966024;28;20200;-72
2024/03/26 08:46:05;;;;;;;9.03;6.57;;;;;;;10.29;47.72;94181.72;4965939;28;20416;-70
2024/03/26 08:48:31;;;;;;;5.90;5.30;;;;;;;10.11;48.32;94177.88;4967378;28;20224;-70
2024/03/26 08:50:56;;;;;;;8.13;5.20;;;;;;;11.01;46.33;94172.53;4966239;28;20188;-70
2024/03/26 08:53:21;;;;;;;7.80;5.50;;;;;;;11.13;45.90;94168.91;4966602;28;20189;-71
2024/03/26 08:55:47;;;;;;;9.10;5.30;;;;;;;11.02;46.01;94164.50;4966966;28;20272;-71
2024/03/26 08:58:12;;;;;;;5.53;5.03;;;;;;;10.73;46.12;94166.06;4968280;28;20181;-72
2024/03/26 09:00:38;;;;;;;6.80;5.80;;;;;;;10.21;47.44;94172.78;4955146;28;20233;-70
2024/03/26 09:03:03;;;;;;;6.23;5.50;;;;;;;9.93;48.44;94170.50;4958099;28;20186;-72
2024/03/26 09:05:29;;;;;;;7.03;5.40;;;;;;;9.70;49.18;94169.63;4962144;28;20189;-70
2024/03/26 09:07:54;;;;;;;7.57;5.47;;;;;;;9.71;49.58;94170.47;4960118;28;20212;-72
2024/03/26 09:10:20;;;;;;;9.00;5.70;;;;;;;10.34;48.48;94173.50;4967937;28;20733;-70
2024/03/26 09:12:47;;;;;;;7.10;6.07;;;;;;;10.52;47.19;94171.22;4966619;28;21057;-70
2024/03/26 09:15:12;;;;;;;7.33;5.40;;;;;;;10.00;49.06;94163.00;4966385;28;20178;-68
2024/03/26 09:17:38;;;;;;;8.63;5.43;;;;;;;10.24;48.76;94178.59;4966003;28;20648;-69
2024/03/26 09:20:05;;;;;;;6.30;5.57;;;;;;;11.18;46.38;94164.09;4961732;28;21094;-71
2024/03/26 09:22:31;;;;;;;11.20;6.40;;;;;;;11.11;46.70;94170.81;4965683;28;20611;-71
2024/03/26 09:24:57;;;;;;;6.77;5.60;;;;;;;11.20;47.13;94156.09;4966070;28;20456;-71
2024/03/26 09:27:23;;;;;;;9.20;6.80;;;;;;;11.48;46.50;94159.91;4957959;28;20322;-71
2024/03/26 09:29:48;;;;;;;8.40;5.43;;;;;;;10.92;47.17;94165.41;4966111;28;20884;-71
2024/03/26 09:32:14;;;;;;;7.23;5.90;;;;;;;9.67;50.43;94163.81;4966635;28;20248;-70
2024/03/26 09:34:39;;;;;;;8.50;6.00;;;;;;;10.28;49.65;94164.31;4966466;28;20193;-72
2024/03/26 09:37:06;;;;;;;7.93;5.30;;;;;;;10.51;48.31;94164.28;4961697;28;20181;-70
2024/03/26 09:39:33;;;;;;;7.97;7.17;;;;;;;9.93;49.46;94157.38;4970109;28;20394;-70
2024/03/26 09:42:02;;;;;;;9.03;5.80;;;;;;;11.39;47.42;94144.91;4970185;28;20444;-71
2024/03/26 09:44:30;;;;;;;6.10;5.13;;;;;;;11.43;46.12;94138.44;4969753;28;20451;-71
2024/03/26 09:46:57;;;;;;;10.13;6.00;;;;;;;11.90;44.99;94144.13;4984072;28;20523;-72
2024/03/26 09:49:26;;;;;;;7.77;5.77;;;;;;;12.03;44.88;94141.31;4969941;28;20531;-71
2024/03/26 09:51:53;;;;;;;9.43;5.37;;;;;;;12.71;44.01;94136.25;4961993;28;20429;-72
2024/03/26 09:54:19;;;;;;;7.67;6.00;;;;;;;12.64;44.21;94121.97;4969728;28;20432;-71
2024/03/26 09:56:45;;;;;;;6.77;5.37;;;;;;;13.04;43.46;94115.75;4961460;28;20878;-71
2024/03/26 09:59:10;;;;;;;8.00;5.63;;;;;;;12.39;45.66;94116.22;4953253;28;20437;-69
2024/03/26 10:01:38;;;;;;;6.50;5.80;;;;;;;12.50;43.97;94108.22;4969976;28;20720;-70
2024/03/26 10:04:03;;;;;;;6.73;6.00;;;;;;;11.78;45.64;94105.72;4970448;28;20244;-70
2024/03/26 10:06:29;;;;;;;6.83;6.20;;;;;;;11.47;47.09;94105.69;4970052;28;20515;-71
2024/03/26 10:08:58;;;;;;;6.93;6.00;;;;;;;11.09;47.85;94106.28;4970094;28;20201;-70
2024/03/26 10:11:25;;;;;;;8.60;5.80;;;;;;;10.66;48.94;94102.75;4965402;28;20913;-69
2024/03/26 10:13:52;;;;;;;7.50;5.57;;;;;;;10.91;48.71;94098.13;4966735;28;20424;-68
2024/03/26 10:16:17;;;;;;;7.00;5.10;;;;;;;11.56;47.60;94091.78;4963217;28;20425;-70
2024/03/26 10:18:43;;;;;;;7.50;5.23;;;;;;;12.06;46.35;94083.19;4971272;28;20442;-69
2024/03/26 10:21:08;;;;;;;9.60;6.00;;;;;;;11.31;47.09;94092.19;4966539;28;20185;-69
2024/03/26 10:23:34;;;;;;;6.87;6.20;;;;;;;11.23;48.17;94088.41;4954104;28;20190;-74
2024/03/26 10:26:00;;;;;;;6.90;6.30;;;;;;;11.13;48.13;94078.81;4955380;28;20715;-68
2024/03/26 10:28:25;;;;;;;13.17;5.70;;;;;;;11.84;47.47;94089.44;4963760;28;20197;-71
2024/03/26 10:30:52;;;;;;;8.00;5.73;;;;;;;11.44;46.86;94079.69;4955371;28;20243;-71
2024/03/26 10:33:21;;;;;;;7.10;6.00;;;;;;;10.88;49.24;94072.13;4960575;28;20178;-70
2024/03/26 10:35:51;;;;;;;7.03;5.97;;;;;;;11.62;47.59;94072.03;4967948;28;20903;-71
2024/03/26 10:38:20;;;;;;;9.40;6.00;;;;;;;11.65;47.84;94070.00;4963842;28;20511;-71
2024/03/26 10:41:12;;;;;;;5.87;5.33;;;;;;;11.69;47.28;94069.72;4964496;28;20543;-71
2024/03/26 10:43:39;;;;;;;10.57;6.33;;;;;;;11.29;48.42;94058.22;4972429;28;20424;-70
2024/03/26 10:46:05;;;;;;;10.03;5.60;;;;;;;12.12;46.76;94060.78;4971722;28;20429;-72
2024/03/26 10:48:32;;;;;;;11.40;6.07;;;;;;;11.93;47.04;94058.91;4972968;28;20460;-70
2024/03/26 10:50:59;;;;;;;10.20;5.80;;;;;;;12.68;46.19;94050.53;4966875;28;20456;-70
2024/03/26 10:53:25;;;;;;;9.40;7.00;;;;;;;12.42;45.88;94044.09;4973882;28;20424;-71
2024/03/26 10:55:50;;;;;;;8.63;6.17;;;;;;;11.96;46.89;94051.63;4975072;28;20924;-71
2024/03/26 10:58:17;;;;;;;8.53;7.03;;;;;;;11.87;47.75;94052.41;4978116;28;20180;-70
2024/03/26 11:00:45;;;;;;;6.03;5.47;;;;;;;11.96;47.61;94038.47;4978944;28;20232;-71
2024/03/26 11:03:13;;;;;;;7.20;5.10;;;;;;;12.12;46.26;94026.59;4976262;28;20422;-72
2024/03/26 11:05:38;;;;;;;6.20;5.53;;;;;;;12.47;45.81;94016.44;4977507;28;20549;-69
2024/03/26 11:08:14;;;;;;;7.53;6.20;;;;;;;13.10;43.81;94013.34;4974623;28;20567;-72
2024/03/26 11:10:55;;;;;;;7.33;5.57;;;;;;;12.66;45.10;94010.34;4970614;28;20205;-71
2024/03/26 11:13:24;;;;;;;7.40;5.30;;;;;;;12.26;45.82;94008.66;4956695;28;20427;-70
2024/03/26 11:15:50;;;;;;;9.00;5.20;;;;;;;12.78;44.53;93992.63;4971297;28;20421;-70
2024/03/26 11:18:27;;;;;;;8.80;6.17;;;;;;;12.69;44.79;93989.03;4969842;28;20435;-71
2024/03/26 11:20:56;;;;;;;9.50;5.93;;;;;;;13.05;44.43;93977.91;4966960;28;20613;-70
2024/03/26 11:23:22;;;;;;;12.20;6.10;;;;;;;13.12;45.06;93981.63;4963415;28;20893;-70
2024/03/26 11:25:54;;;;;;;9.90;6.33;;;;;;;13.34;43.88;93972.56;4969193;28;20429;-70
2024/03/26 11:28:21;;;;;;;13.20;5.87;;;;;;;13.69;43.40;93976.31;4957984;28;20300;-72
2024/03/26 11:30:47;;;;;;;6.20;5.17;;;;;;;13.59;42.02;93972.91;4966026;28;20614;-71
2024/03/26 11:33:22;;;;;;;8.30;5.40;;;;;;;13.15;44.05;93973.44;4968656;28;20520;-72